sensor_id;sensor_type;location;lat;lon;timestamp;P1;durP1;ratioP1;P2;durP2;ratioP2
25319;SDS011;13256;49.012;8.610;2023-06-14T00:00:01;6.40;;;3.22;;
25319;SDS011;13256;49.012;8.610;2023-06-14T00:02:56;5.05;;;2.92;;
25319;SDS011;13256;49.012;8.610;2023-06-14T00:05:30;3.72;;;2.70;;
25319;SDS011;13256;49.012;8.610;2023-06-14T00:10:40;4.00;;;2.85;;
25319;SDS011;13256;49.012;8.610;2023-06-14T00:13:12;4.85;;;2.92;;
25319;SDS011;13256;49.012;8.610;2023-06-14T00:25:00;4.78;;;3.47;;
25319;SDS011;13256;49.012;8.610;2023-06-14T00:30:47;4.65;;;3.38;;
25319;SDS011;13256;49.012;8.610;2023-06-14T00:33:17;5.80;;;2.90;;
25319;SDS011;13256;49.012;8.610;2023-06-14T00:39:45;5.18;;;3.05;;
25319;SDS011;13256;49.012;8.610;2023-06-14T00:42:31;6.25;;;3.47;;
25319;SDS011;13256;49.012;8.610;2023-06-14T00:51:12;5.53;;;3.28;;
25319;SDS011;13256;49.012;8.610;2023-06-14T01:03:48;5.15;;;2.42;;
25319;SDS011;13256;49.012;8.610;2023-06-14T01:16:14;5.35;;;2.92;;
25319;SDS011;13256;49.012;8.610;2023-06-14T01:18:43;4.57;;;2.85;;
25319;SDS011;13256;49.012;8.610;2023-06-14T01:31:07;5.95;;;3.53;;
25319;SDS011;13256;49.012;8.610;2023-06-14T01:34:16;5.47;;;3.35;;
25319;SDS011;13256;49.012;8.610;2023-06-14T01:39:43;4.20;;;2.80;;
25319;SDS011;13256;49.012;8.610;2023-06-14T01:48:47;3.17;;;2.60;;
25319;SDS011;13256;49.012;8.610;2023-06-14T01:51:14;5.70;;;3.30;;
25319;SDS011;13256;49.012;8.610;2023-06-14T01:59:46;7.40;;;2.80;;
25319;SDS011;13256;49.012;8.610;2023-06-14T02:05:10;8.93;;;3.17;;
25319;SDS011;13256;49.012;8.610;2023-06-14T02:21:20;6.10;;;3.33;;
25319;SDS011;13256;49.012;8.610;2023-06-14T02:23:47;8.85;;;3.35;;
25319;SDS011;13256;49.012;8.610;2023-06-14T02:35:56;6.40;;;3.08;;
25319;SDS011;13256;49.012;8.610;2023-06-14T02:41:22;5.50;;;2.80;;
25319;SDS011;13256;49.012;8.610;2023-06-14T02:43:56;5.78;;;3.40;;
25319;SDS011;13256;49.012;8.610;2023-06-14T02:51:48;5.75;;;3.33;;
25319;SDS011;13256;49.012;8.610;2023-06-14T03:07:04;6.53;;;3.75;;
25319;SDS011;13256;49.012;8.610;2023-06-14T03:34:51;5.32;;;3.28;;
25319;SDS011;13256;49.012;8.610;2023-06-14T03:37:23;8.27;;;3.50;;
25319;SDS011;13256;49.012;8.610;2023-06-14T03:43:02;4.57;;;3.28;;
25319;SDS011;13256;49.012;8.610;2023-06-14T03:45:30;5.00;;;3.40;;
25319;SDS011;13256;49.012;8.610;2023-06-14T03:48:00;6.55;;;3.47;;
25319;SDS011;13256;49.012;8.610;2023-06-14T03:50:30;6.45;;;3.53;;
25319;SDS011;13256;49.012;8.610;2023-06-14T03:53:03;4.47;;;3.38;;
25319;SDS011;13256;49.012;8.610;2023-06-14T03:55:32;8.88;;;3.67;;
25319;SDS011;13256;49.012;8.610;2023-06-14T04:11:22;7.80;;;3.65;;
25319;SDS011;13256;49.012;8.610;2023-06-14T04:16:47;7.25;;;3.50;;
25319;SDS011;13256;49.012;8.610;2023-06-14T04:25:42;6.07;;;3.70;;
25319;SDS011;13256;49.012;8.610;2023-06-14T04:28:13;6.13;;;3.83;;
25319;SDS011;13256;49.012;8.610;2023-06-14T04:30:46;8.90;;;3.70;;
25319;SDS011;13256;49.012;8.610;2023-06-14T04:36:18;8.30;;;3.40;;
25319;SDS011;13256;49.012;8.610;2023-06-14T04:38:50;6.63;;;3.65;;
25319;SDS011;13256;49.012;8.610;2023-06-14T04:44:46;6.60;;;3.67;;
25319;SDS011;13256;49.012;8.610;2023-06-14T04:50:12;5.15;;;3.72;;
25319;SDS011;13256;49.012;8.610;2023-06-14T04:52:43;6.57;;;4.00;;
25319;SDS011;13256;49.012;8.610;2023-06-14T04:55:11;5.22;;;3.42;;
25319;SDS011;13256;49.012;8.610;2023-06-14T05:10:41;6.18;;;4.05;;
25319;SDS011;13256;49.012;8.610;2023-06-14T05:15:58;8.60;;;4.22;;
25319;SDS011;13256;49.012;8.610;2023-06-14T05:18:26;7.68;;;4.47;;
25319;SDS011;13256;49.012;8.610;2023-06-14T05:20:52;5.25;;;4.00;;
25319;SDS011;13256;49.012;8.610;2023-06-14T05:23:19;5.72;;;3.60;;
25319;SDS011;13256;49.012;8.610;2023-06-14T05:25:48;6.90;;;4.05;;
25319;SDS011;13256;49.012;8.610;2023-06-14T05:28:46;5.45;;;3.60;;
25319;SDS011;13256;49.012;8.610;2023-06-14T05:31:27;7.63;;;3.80;;
25319;SDS011;13256;49.012;8.610;2023-06-14T05:37:10;6.43;;;3.88;;
25319;SDS011;13256;49.012;8.610;2023-06-14T05:42:11;5.22;;;3.70;;
25319;SDS011;13256;49.012;8.610;2023-06-14T05:47:27;10.32;;;4.32;;
25319;SDS011;13256;49.012;8.610;2023-06-14T05:49:57;9.93;;;3.97;;
25319;SDS011;13256;49.012;8.610;2023-06-14T05:52:24;11.02;;;4.05;;
25319;SDS011;13256;49.012;8.610;2023-06-14T05:54:54;7.68;;;4.32;;
25319;SDS011;13256;49.012;8.610;2023-06-14T05:57:21;7.65;;;4.15;;
25319;SDS011;13256;49.012;8.610;2023-06-14T05:59:49;7.70;;;3.92;;
25319;SDS011;13256;49.012;8.610;2023-06-14T06:02:16;8.23;;;4.07;;
25319;SDS011;13256;49.012;8.610;2023-06-14T06:04:46;6.45;;;4.20;;
25319;SDS011;13256;49.012;8.610;2023-06-14T06:07:14;8.75;;;4.03;;
25319;SDS011;13256;49.012;8.610;2023-06-14T06:09:43;6.82;;;3.67;;
25319;SDS011;13256;49.012;8.610;2023-06-14T06:12:11;4.97;;;4.03;;
25319;SDS011;13256;49.012;8.610;2023-06-14T06:14:42;7.43;;;4.00;;
25319;SDS011;13256;49.012;8.610;2023-06-14T06:17:09;14.27;;;4.20;;
25319;SDS011;13256;49.012;8.610;2023-06-14T06:19:39;5.80;;;3.72;;
25319;SDS011;13256;49.012;8.610;2023-06-14T06:22:06;7.88;;;3.95;;
25319;SDS011;13256;49.012;8.610;2023-06-14T06:24:35;5.80;;;3.80;;
25319;SDS011;13256;49.012;8.610;2023-06-14T06:27:03;6.47;;;3.70;;
25319;SDS011;13256;49.012;8.610;2023-06-14T06:29:34;8.57;;;3.40;;
25319;SDS011;13256;49.012;8.610;2023-06-14T06:32:04;7.28;;;3.75;;
25319;SDS011;13256;49.012;8.610;2023-06-14T06:34:35;6.70;;;3.75;;
25319;SDS011;13256;49.012;8.610;2023-06-14T06:37:03;7.45;;;4.05;;
25319;SDS011;13256;49.012;8.610;2023-06-14T06:39:30;6.97;;;3.70;;
25319;SDS011;13256;49.012;8.610;2023-06-14T06:41:58;7.43;;;4.18;;
25319;SDS011;13256;49.012;8.610;2023-06-14T06:44:36;8.30;;;3.78;;
25319;SDS011;13256;49.012;8.610;2023-06-14T06:47:06;5.80;;;3.95;;
25319;SDS011;13256;49.012;8.610;2023-06-14T06:49:33;4.30;;;3.28;;
25319;SDS011;13256;49.012;8.610;2023-06-14T06:52:04;6.85;;;3.63;;
25319;SDS011;13256;49.012;8.610;2023-06-14T06:54:33;7.63;;;3.70;;
25319;SDS011;13256;49.012;8.610;2023-06-14T06:57:06;5.38;;;3.50;;
25319;SDS011;13256;49.012;8.610;2023-06-14T06:59:35;6.13;;;3.83;;
25319;SDS011;13256;49.012;8.610;2023-06-14T07:02:12;6.57;;;3.53;;
25319;SDS011;13256;49.012;8.610;2023-06-14T07:04:41;9.40;;;3.55;;
25319;SDS011;13256;49.012;8.610;2023-06-14T07:07:11;10.23;;;4.00;;
25319;SDS011;13256;49.012;8.610;2023-06-14T07:09:44;6.38;;;3.80;;
25319;SDS011;13256;49.012;8.610;2023-06-14T07:12:14;7.30;;;3.97;;
25319;SDS011;13256;49.012;8.610;2023-06-14T07:14:46;6.43;;;3.28;;
25319;SDS011;13256;49.012;8.610;2023-06-14T07:17:13;6.75;;;3.58;;
25319;SDS011;13256;49.012;8.610;2023-06-14T07:19:40;6.57;;;3.60;;
25319;SDS011;13256;49.012;8.610;2023-06-14T07:22:09;7.28;;;3.90;;
25319;SDS011;13256;49.012;8.610;2023-06-14T07:24:36;10.25;;;3.83;;
25319;SDS011;13256;49.012;8.610;2023-06-14T07:27:05;14.55;;;3.47;;
25319;SDS011;13256;49.012;8.610;2023-06-14T07:29:32;6.68;;;3.85;;
25319;SDS011;13256;49.012;8.610;2023-06-14T07:32:03;7.22;;;3.45;;
25319;SDS011;13256;49.012;8.610;2023-06-14T07:34:35;7.72;;;3.90;;
25319;SDS011;13256;49.012;8.610;2023-06-14T07:37:01;9.35;;;3.58;;
25319;SDS011;13256;49.012;8.610;2023-06-14T07:39:34;5.25;;;3.22;;
25319;SDS011;13256;49.012;8.610;2023-06-14T07:42:03;5.68;;;3.58;;
25319;SDS011;13256;49.012;8.610;2023-06-14T07:44:37;7.82;;;3.67;;
25319;SDS011;13256;49.012;8.610;2023-06-14T07:47:07;5.03;;;3.20;;
25319;SDS011;13256;49.012;8.610;2023-06-14T07:49:39;6.82;;;3.05;;
25319;SDS011;13256;49.012;8.610;2023-06-14T07:52:05;8.30;;;3.33;;
25319;SDS011;13256;49.012;8.610;2023-06-14T07:54:33;4.43;;;3.30;;
25319;SDS011;13256;49.012;8.610;2023-06-14T07:57:00;6.18;;;3.63;;
25319;SDS011;13256;49.012;8.610;2023-06-14T07:59:29;5.63;;;3.33;;
25319;SDS011;13256;49.012;8.610;2023-06-14T08:01:59;5.78;;;3.20;;
25319;SDS011;13256;49.012;8.610;2023-06-14T08:04:26;6.78;;;3.20;;
25319;SDS011;13256;49.012;8.610;2023-06-14T08:06:59;8.25;;;3.25;;
25319;SDS011;13256;49.012;8.610;2023-06-14T08:09:28;5.38;;;3.17;;
25319;SDS011;13256;49.012;8.610;2023-06-14T08:12:26;4.97;;;3.58;;
25319;SDS011;13256;49.012;8.610;2023-06-14T08:15:01;8.93;;;3.03;;
25319;SDS011;13256;49.012;8.610;2023-06-14T08:17:37;11.15;;;2.90;;
25319;SDS011;13256;49.012;8.610;2023-06-14T08:20:05;4.25;;;3.15;;
25319;SDS011;13256;49.012;8.610;2023-06-14T08:22:35;4.53;;;2.80;;
25319;SDS011;13256;49.012;8.610;2023-06-14T08:25:05;4.03;;;2.97;;
25319;SDS011;13256;49.012;8.610;2023-06-14T08:27:33;9.15;;;3.17;;
25319;SDS011;13256;49.012;8.610;2023-06-14T08:30:02;8.52;;;3.50;;
25319;SDS011;13256;49.012;8.610;2023-06-14T08:32:32;5.80;;;3.40;;
25319;SDS011;13256;49.012;8.610;2023-06-14T08:35:02;5.25;;;3.28;;
25319;SDS011;13256;49.012;8.610;2023-06-14T08:37:40;6.28;;;3.15;;
25319;SDS011;13256;49.012;8.610;2023-06-14T08:40:17;5.30;;;3.22;;
25319;SDS011;13256;49.012;8.610;2023-06-14T08:42:52;6.30;;;3.05;;
25319;SDS011;13256;49.012;8.610;2023-06-14T08:50:26;5.20;;;2.97;;
25319;SDS011;13256;49.012;8.610;2023-06-14T08:52:57;9.82;;;3.20;;
25319;SDS011;13256;49.012;8.610;2023-06-14T08:55:31;6.47;;;3.20;;
25319;SDS011;13256;49.012;8.610;2023-06-14T09:01:04;6.95;;;3.13;;
25319;SDS011;13256;49.012;8.610;2023-06-14T09:03:43;4.65;;;3.03;;
25319;SDS011;13256;49.012;8.610;2023-06-14T09:06:28;4.05;;;2.92;;
25319;SDS011;13256;49.012;8.610;2023-06-14T09:08:58;12.18;;;3.90;;
25319;SDS011;13256;49.012;8.610;2023-06-14T09:11:29;6.28;;;3.47;;
25319;SDS011;13256;49.012;8.610;2023-06-14T09:16:53;3.55;;;2.60;;
25319;SDS011;13256;49.012;8.610;2023-06-14T09:22:15;4.95;;;3.42;;
25319;SDS011;13256;49.012;8.610;2023-06-14T09:24:43;4.10;;;3.10;;
25319;SDS011;13256;49.012;8.610;2023-06-14T09:27:22;9.02;;;2.85;;
25319;SDS011;13256;49.012;8.610;2023-06-14T09:29:50;7.28;;;3.50;;
25319;SDS011;13256;49.012;8.610;2023-06-14T09:35:36;6.45;;;3.15;;
25319;SDS011;13256;49.012;8.610;2023-06-14T09:38:03;6.65;;;3.03;;
25319;SDS011;13256;49.012;8.610;2023-06-14T09:40:35;4.20;;;3.03;;
25319;SDS011;13256;49.012;8.610;2023-06-14T09:43:07;6.43;;;3.60;;
25319;SDS011;13256;49.012;8.610;2023-06-14T09:45:41;7.00;;;3.22;;
25319;SDS011;13256;49.012;8.610;2023-06-14T09:48:12;8.57;;;3.58;;
25319;SDS011;13256;49.012;8.610;2023-06-14T09:50:46;6.00;;;3.20;;
25319;SDS011;13256;49.012;8.610;2023-06-14T09:53:18;6.35;;;3.08;;
25319;SDS011;13256;49.012;8.610;2023-06-14T09:58:24;5.47;;;3.28;;
25319;SDS011;13256;49.012;8.610;2023-06-14T10:00:58;4.32;;;2.65;;
25319;SDS011;13256;49.012;8.610;2023-06-14T10:03:29;4.47;;;2.95;;
25319;SDS011;13256;49.012;8.610;2023-06-14T10:06:19;3.50;;;2.47;;
25319;SDS011;13256;49.012;8.610;2023-06-14T10:09:00;4.05;;;2.75;;
25319;SDS011;13256;49.012;8.610;2023-06-14T10:11:31;10.00;;;2.58;;
25319;SDS011;13256;49.012;8.610;2023-06-14T10:14:03;11.23;;;2.63;;
25319;SDS011;13256;49.012;8.610;2023-06-14T10:16:37;3.67;;;2.67;;
25319;SDS011;13256;49.012;8.610;2023-06-14T10:19:23;7.07;;;2.50;;
25319;SDS011;13256;49.012;8.610;2023-06-14T10:25:42;4.18;;;3.00;;
25319;SDS011;13256;49.012;8.610;2023-06-14T10:28:19;4.05;;;2.80;;
25319;SDS011;13256;49.012;8.610;2023-06-14T10:31:16;4.28;;;2.78;;
25319;SDS011;13256;49.012;8.610;2023-06-14T10:33:50;7.10;;;3.00;;
25319;SDS011;13256;49.012;8.610;2023-06-14T10:36:32;6.13;;;2.75;;
25319;SDS011;13256;49.012;8.610;2023-06-14T10:39:07;3.00;;;2.30;;
25319;SDS011;13256;49.012;8.610;2023-06-14T10:41:54;4.67;;;2.53;;
25319;SDS011;13256;49.012;8.610;2023-06-14T10:46:53;3.72;;;2.53;;
25319;SDS011;13256;49.012;8.610;2023-06-14T10:49:37;4.18;;;2.50;;
25319;SDS011;13256;49.012;8.610;2023-06-14T10:52:07;5.35;;;2.40;;
25319;SDS011;13256;49.012;8.610;2023-06-14T10:55:11;4.75;;;2.63;;
25319;SDS011;13256;49.012;8.610;2023-06-14T10:57:53;6.25;;;2.72;;
25319;SDS011;13256;49.012;8.610;2023-06-14T11:00:28;5.85;;;2.72;;
25319;SDS011;13256;49.012;8.610;2023-06-14T11:06:01;5.50;;;2.45;;
25319;SDS011;13256;49.012;8.610;2023-06-14T11:11:51;3.10;;;2.60;;
25319;SDS011;13256;49.012;8.610;2023-06-14T11:14:21;4.00;;;2.58;;
25319;SDS011;13256;49.012;8.610;2023-06-14T11:17:01;5.05;;;2.60;;
25319;SDS011;13256;49.012;8.610;2023-06-14T11:19:29;3.63;;;2.65;;
25319;SDS011;13256;49.012;8.610;2023-06-14T11:22:13;4.80;;;2.47;;
25319;SDS011;13256;49.012;8.610;2023-06-14T11:24:44;3.60;;;2.53;;
25319;SDS011;13256;49.012;8.610;2023-06-14T11:27:14;8.63;;;2.60;;
25319;SDS011;13256;49.012;8.610;2023-06-14T11:29:48;4.05;;;2.45;;
25319;SDS011;13256;49.012;8.610;2023-06-14T11:32:22;3.47;;;2.42;;
25319;SDS011;13256;49.012;8.610;2023-06-14T11:34:49;9.93;;;2.78;;
25319;SDS011;13256;49.012;8.610;2023-06-14T11:37:17;5.93;;;2.58;;
25319;SDS011;13256;49.012;8.610;2023-06-14T11:39:45;5.07;;;2.80;;
25319;SDS011;13256;49.012;8.610;2023-06-14T11:42:15;7.30;;;3.03;;
25319;SDS011;13256;49.012;8.610;2023-06-14T11:44:54;8.27;;;2.85;;
25319;SDS011;13256;49.012;8.610;2023-06-14T11:47:36;5.28;;;2.80;;
25319;SDS011;13256;49.012;8.610;2023-06-14T11:53:04;7.95;;;2.90;;
25319;SDS011;13256;49.012;8.610;2023-06-14T11:58:32;3.17;;;2.63;;
25319;SDS011;13256;49.012;8.610;2023-06-14T12:01:02;8.43;;;2.85;;
25319;SDS011;13256;49.012;8.610;2023-06-14T12:03:33;4.03;;;2.40;;
25319;SDS011;13256;49.012;8.610;2023-06-14T12:09:23;3.20;;;2.60;;
25319;SDS011;13256;49.012;8.610;2023-06-14T12:11:59;6.82;;;2.92;;
25319;SDS011;13256;49.012;8.610;2023-06-14T12:14:31;5.38;;;2.80;;
25319;SDS011;13256;49.012;8.610;2023-06-14T12:17:16;3.40;;;2.25;;
25319;SDS011;13256;49.012;8.610;2023-06-14T12:19:48;5.70;;;2.88;;
25319;SDS011;13256;49.012;8.610;2023-06-14T12:22:17;3.10;;;2.10;;
25319;SDS011;13256;49.012;8.610;2023-06-14T12:24:47;5.28;;;2.80;;
25319;SDS011;13256;49.012;8.610;2023-06-14T12:27:15;4.68;;;2.47;;
25319;SDS011;13256;49.012;8.610;2023-06-14T12:32:45;3.08;;;2.03;;
25319;SDS011;13256;49.012;8.610;2023-06-14T12:35:12;8.93;;;2.95;;
25319;SDS011;13256;49.012;8.610;2023-06-14T12:37:47;6.63;;;2.58;;
25319;SDS011;13256;49.012;8.610;2023-06-14T12:40:18;3.50;;;2.40;;
25319;SDS011;13256;49.012;8.610;2023-06-14T12:42:45;4.65;;;2.83;;
25319;SDS011;13256;49.012;8.610;2023-06-14T12:45:14;3.58;;;2.30;;
25319;SDS011;13256;49.012;8.610;2023-06-14T12:47:43;8.40;;;2.50;;
25319;SDS011;13256;49.012;8.610;2023-06-14T12:50:15;3.08;;;2.30;;
25319;SDS011;13256;49.012;8.610;2023-06-14T12:52:44;4.43;;;2.40;;
25319;SDS011;13256;49.012;8.610;2023-06-14T12:55:11;4.47;;;2.22;;
25319;SDS011;13256;49.012;8.610;2023-06-14T12:57:40;4.97;;;2.50;;
25319;SDS011;13256;49.012;8.610;2023-06-14T13:00:08;5.93;;;2.30;;
25319;SDS011;13256;49.012;8.610;2023-06-14T13:02:36;4.63;;;2.25;;
25319;SDS011;13256;49.012;8.610;2023-06-14T13:05:05;4.95;;;2.80;;
25319;SDS011;13256;49.012;8.610;2023-06-14T13:07:39;4.15;;;2.50;;
25319;SDS011;13256;49.012;8.610;2023-06-14T13:10:08;4.72;;;2.50;;
25319;SDS011;13256;49.012;8.610;2023-06-14T13:12:35;5.65;;;2.75;;
25319;SDS011;13256;49.012;8.610;2023-06-14T13:15:06;2.85;;;2.10;;
25319;SDS011;13256;49.012;8.610;2023-06-14T13:17:35;6.00;;;2.42;;
25319;SDS011;13256;49.012;8.610;2023-06-14T13:20:05;2.63;;;2.30;;
25319;SDS011;13256;49.012;8.610;2023-06-14T13:22:35;5.43;;;2.20;;
25319;SDS011;13256;49.012;8.610;2023-06-14T13:25:07;5.55;;;2.35;;
25319;SDS011;13256;49.012;8.610;2023-06-14T13:27:37;4.15;;;2.05;;
25319;SDS011;13256;49.012;8.610;2023-06-14T13:38:38;2.35;;;2.05;;
25319;SDS011;13256;49.012;8.610;2023-06-14T13:41:11;4.88;;;2.42;;
25319;SDS011;13256;49.012;8.610;2023-06-14T13:43:37;4.38;;;2.38;;
25319;SDS011;13256;49.012;8.610;2023-06-14T13:46:08;3.03;;;2.25;;
25319;SDS011;13256;49.012;8.610;2023-06-14T13:48:36;2.83;;;2.10;;
25319;SDS011;13256;49.012;8.610;2023-06-14T13:51:07;3.97;;;2.53;;
25319;SDS011;13256;49.012;8.610;2023-06-14T13:53:38;3.92;;;2.58;;
25319;SDS011;13256;49.012;8.610;2023-06-14T13:56:21;2.85;;;2.13;;
25319;SDS011;13256;49.012;8.610;2023-06-14T13:58:50;7.03;;;2.40;;
25319;SDS011;13256;49.012;8.610;2023-06-14T14:01:25;3.55;;;2.20;;
25319;SDS011;13256;49.012;8.610;2023-06-14T14:03:53;4.53;;;2.00;;
25319;SDS011;13256;49.012;8.610;2023-06-14T14:06:23;4.03;;;2.72;;
25319;SDS011;13256;49.012;8.610;2023-06-14T14:08:56;2.97;;;2.47;;
25319;SDS011;13256;49.012;8.610;2023-06-14T14:11:23;3.97;;;2.10;;
25319;SDS011;13256;49.012;8.610;2023-06-14T14:16:45;6.28;;;2.30;;
25319;SDS011;13256;49.012;8.610;2023-06-14T14:19:18;5.47;;;2.15;;
25319;SDS011;13256;49.012;8.610;2023-06-14T14:21:45;4.00;;;2.40;;
25319;SDS011;13256;49.012;8.610;2023-06-14T14:24:19;4.47;;;2.30;;
25319;SDS011;13256;49.012;8.610;2023-06-14T14:26:48;4.38;;;2.42;;
25319;SDS011;13256;49.012;8.610;2023-06-14T14:29:16;2.70;;;1.88;;
25319;SDS011;13256;49.012;8.610;2023-06-14T14:31:43;3.90;;;1.85;;
25319;SDS011;13256;49.012;8.610;2023-06-14T14:34:12;2.30;;;1.92;;
25319;SDS011;13256;49.012;8.610;2023-06-14T14:36:47;2.72;;;2.00;;
25319;SDS011;13256;49.012;8.610;2023-06-14T14:39:17;4.00;;;1.70;;
25319;SDS011;13256;49.012;8.610;2023-06-14T14:41:44;3.67;;;2.42;;
25319;SDS011;13256;49.012;8.610;2023-06-14T14:44:11;3.30;;;2.22;;
25319;SDS011;13256;49.012;8.610;2023-06-14T14:46:43;3.40;;;2.22;;
25319;SDS011;13256;49.012;8.610;2023-06-14T14:49:11;5.13;;;2.70;;
25319;SDS011;13256;49.012;8.610;2023-06-14T14:51:38;5.22;;;2.17;;
25319;SDS011;13256;49.012;8.610;2023-06-14T14:54:06;4.45;;;2.33;;
25319;SDS011;13256;49.012;8.610;2023-06-14T14:56:33;4.13;;;2.20;;
25319;SDS011;13256;49.012;8.610;2023-06-14T14:59:01;5.60;;;2.30;;
25319;SDS011;13256;49.012;8.610;2023-06-14T15:01:29;4.38;;;2.22;;
25319;SDS011;13256;49.012;8.610;2023-06-14T15:04:01;6.03;;;2.00;;
25319;SDS011;13256;49.012;8.610;2023-06-14T15:06:28;3.33;;;2.42;;
25319;SDS011;13256;49.012;8.610;2023-06-14T15:09:00;4.40;;;2.35;;
25319;SDS011;13256;49.012;8.610;2023-06-14T15:13:53;4.47;;;2.45;;
25319;SDS011;13256;49.012;8.610;2023-06-14T15:16:20;4.82;;;2.85;;
25319;SDS011;13256;49.012;8.610;2023-06-14T15:18:48;2.80;;;2.10;;
25319;SDS011;13256;49.012;8.610;2023-06-14T15:21:16;2.83;;;2.17;;
25319;SDS011;13256;49.012;8.610;2023-06-14T15:23:50;2.78;;;1.95;;
25319;SDS011;13256;49.012;8.610;2023-06-14T15:26:19;5.15;;;2.67;;
25319;SDS011;13256;49.012;8.610;2023-06-14T15:29:12;2.78;;;2.33;;
25319;SDS011;13256;49.012;8.610;2023-06-14T15:31:39;4.03;;;2.33;;
25319;SDS011;13256;49.012;8.610;2023-06-14T15:34:14;2.35;;;1.90;;
25319;SDS011;13256;49.012;8.610;2023-06-14T15:36:41;3.58;;;2.05;;
25319;SDS011;13256;49.012;8.610;2023-06-14T15:39:10;3.95;;;2.47;;
25319;SDS011;13256;49.012;8.610;2023-06-14T15:41:37;3.75;;;2.30;;
25319;SDS011;13256;49.012;8.610;2023-06-14T15:44:04;5.15;;;2.75;;
25319;SDS011;13256;49.012;8.610;2023-06-14T15:46:31;3.65;;;2.30;;
25319;SDS011;13256;49.012;8.610;2023-06-14T15:48:57;5.07;;;2.47;;
25319;SDS011;13256;49.012;8.610;2023-06-14T15:51:33;3.30;;;2.70;;
25319;SDS011;13256;49.012;8.610;2023-06-14T15:54:00;3.72;;;2.20;;
25319;SDS011;13256;49.012;8.610;2023-06-14T15:56:29;3.88;;;2.63;;
25319;SDS011;13256;49.012;8.610;2023-06-14T15:58:56;3.40;;;2.30;;
25319;SDS011;13256;49.012;8.610;2023-06-14T16:01:23;2.50;;;2.20;;
25319;SDS011;13256;49.012;8.610;2023-06-14T16:04:05;3.08;;;2.30;;
25319;SDS011;13256;49.012;8.610;2023-06-14T16:06:32;4.65;;;2.50;;
25319;SDS011;13256;49.012;8.610;2023-06-14T16:08:59;4.18;;;2.30;;
25319;SDS011;13256;49.012;8.610;2023-06-14T16:11:29;2.22;;;2.00;;
25319;SDS011;13256;49.012;8.610;2023-06-14T16:14:05;5.60;;;2.50;;
25319;SDS011;13256;49.012;8.610;2023-06-14T16:17:06;3.67;;;2.45;;
25319;SDS011;13256;49.012;8.610;2023-06-14T16:19:33;3.85;;;2.53;;
25319;SDS011;13256;49.012;8.610;2023-06-14T16:22:04;3.67;;;2.33;;
25319;SDS011;13256;49.012;8.610;2023-06-14T16:24:33;3.38;;;2.25;;
25319;SDS011;13256;49.012;8.610;2023-06-14T16:27:01;3.42;;;2.42;;
25319;SDS011;13256;49.012;8.610;2023-06-14T16:29:28;4.95;;;2.67;;
25319;SDS011;13256;49.012;8.610;2023-06-14T16:31:55;3.03;;;2.60;;
25319;SDS011;13256;49.012;8.610;2023-06-14T16:34:22;3.20;;;2.20;;
25319;SDS011;13256;49.012;8.610;2023-06-14T16:37:04;5.05;;;2.38;;
25319;SDS011;13256;49.012;8.610;2023-06-14T16:39:33;3.75;;;2.42;;
25319;SDS011;13256;49.012;8.610;2023-06-14T16:42:03;4.15;;;2.80;;
25319;SDS011;13256;49.012;8.610;2023-06-14T16:44:41;4.07;;;2.40;;
25319;SDS011;13256;49.012;8.610;2023-06-14T16:47:08;3.25;;;2.80;;
25319;SDS011;13256;49.012;8.610;2023-06-14T16:49:36;3.83;;;2.25;;
25319;SDS011;13256;49.012;8.610;2023-06-14T16:52:07;3.22;;;2.33;;
25319;SDS011;13256;49.012;8.610;2023-06-14T16:54:34;4.28;;;2.80;;
25319;SDS011;13256;49.012;8.610;2023-06-14T16:57:01;3.58;;;2.47;;
25319;SDS011;13256;49.012;8.610;2023-06-14T17:05:14;3.08;;;2.70;;
25319;SDS011;13256;49.012;8.610;2023-06-14T17:07:43;3.33;;;2.25;;
25319;SDS011;13256;49.012;8.610;2023-06-14T17:10:10;4.18;;;2.72;;
25319;SDS011;13256;49.012;8.610;2023-06-14T17:12:37;6.93;;;2.65;;
25319;SDS011;13256;49.012;8.610;2023-06-14T17:15:10;3.38;;;2.40;;
25319;SDS011;13256;49.012;8.610;2023-06-14T17:17:42;5.03;;;2.42;;
25319;SDS011;13256;49.012;8.610;2023-06-14T17:20:12;3.63;;;2.55;;
25319;SDS011;13256;49.012;8.610;2023-06-14T17:22:44;6.13;;;2.80;;
25319;SDS011;13256;49.012;8.610;2023-06-14T17:25:11;3.08;;;2.50;;
25319;SDS011;13256;49.012;8.610;2023-06-14T17:27:41;6.45;;;2.40;;
25319;SDS011;13256;49.012;8.610;2023-06-14T17:30:08;3.75;;;2.83;;
25319;SDS011;13256;49.012;8.610;2023-06-14T17:32:38;3.60;;;2.45;;
25319;SDS011;13256;49.012;8.610;2023-06-14T17:35:10;7.35;;;2.53;;
25319;SDS011;13256;49.012;8.610;2023-06-14T17:37:43;3.10;;;2.42;;
25319;SDS011;13256;49.012;8.610;2023-06-14T17:40:15;4.25;;;2.88;;
25319;SDS011;13256;49.012;8.610;2023-06-14T17:42:42;3.75;;;2.28;;
25319;SDS011;13256;49.012;8.610;2023-06-14T17:45:11;3.50;;;2.63;;
25319;SDS011;13256;49.012;8.610;2023-06-14T17:47:44;4.30;;;2.75;;
25319;SDS011;13256;49.012;8.610;2023-06-14T17:50:11;3.10;;;2.60;;
25319;SDS011;13256;49.012;8.610;2023-06-14T17:53:08;5.50;;;2.80;;
25319;SDS011;13256;49.012;8.610;2023-06-14T17:55:35;3.63;;;2.70;;
25319;SDS011;13256;49.012;8.610;2023-06-14T17:58:05;2.63;;;2.20;;
25319;SDS011;13256;49.012;8.610;2023-06-14T18:00:32;3.47;;;2.58;;
25319;SDS011;13256;49.012;8.610;2023-06-14T18:02:59;4.15;;;2.63;;
25319;SDS011;13256;49.012;8.610;2023-06-14T18:05:30;6.13;;;3.10;;
25319;SDS011;13256;49.012;8.610;2023-06-14T18:07:57;3.72;;;2.47;;
25319;SDS011;13256;49.012;8.610;2023-06-14T18:10:25;4.30;;;3.03;;
25319;SDS011;13256;49.012;8.610;2023-06-14T18:12:52;3.92;;;2.25;;
25319;SDS011;13256;49.012;8.610;2023-06-14T18:15:19;6.07;;;2.88;;
25319;SDS011;13256;49.012;8.610;2023-06-14T18:17:48;3.97;;;2.70;;
25319;SDS011;13256;49.012;8.610;2023-06-14T18:20:22;4.10;;;3.13;;
25319;SDS011;13256;49.012;8.610;2023-06-14T18:22:55;4.57;;;2.60;;
25319;SDS011;13256;49.012;8.610;2023-06-14T18:25:21;3.83;;;2.80;;
25319;SDS011;13256;49.012;8.610;2023-06-14T18:27:49;5.65;;;2.50;;
25319;SDS011;13256;49.012;8.610;2023-06-14T18:30:18;3.63;;;2.40;;
25319;SDS011;13256;49.012;8.610;2023-06-14T18:32:50;7.47;;;2.85;;
25319;SDS011;13256;49.012;8.610;2023-06-14T18:35:20;3.13;;;2.75;;
25319;SDS011;13256;49.012;8.610;2023-06-14T18:37:51;6.25;;;2.60;;
25319;SDS011;13256;49.012;8.610;2023-06-14T18:40:17;4.15;;;2.40;;
25319;SDS011;13256;49.012;8.610;2023-06-14T18:42:44;2.80;;;2.45;;
25319;SDS011;13256;49.012;8.610;2023-06-14T18:45:11;3.28;;;2.55;;
25319;SDS011;13256;49.012;8.610;2023-06-14T18:47:41;3.15;;;2.45;;
25319;SDS011;13256;49.012;8.610;2023-06-14T18:50:08;8.15;;;2.80;;
25319;SDS011;13256;49.012;8.610;2023-06-14T18:55:34;3.25;;;2.55;;
25319;SDS011;13256;49.012;8.610;2023-06-14T18:58:01;4.68;;;2.53;;
25319;SDS011;13256;49.012;8.610;2023-06-14T19:00:35;6.03;;;2.88;;
25319;SDS011;13256;49.012;8.610;2023-06-14T19:03:03;4.63;;;2.30;;
25319;SDS011;13256;49.012;8.610;2023-06-14T19:05:37;4.90;;;2.90;;
25319;SDS011;13256;49.012;8.610;2023-06-14T19:08:08;3.30;;;2.60;;
25319;SDS011;13256;49.012;8.610;2023-06-14T19:10:37;3.47;;;2.72;;
25319;SDS011;13256;49.012;8.610;2023-06-14T19:13:04;6.68;;;2.92;;
25319;SDS011;13256;49.012;8.610;2023-06-14T19:15:37;5.47;;;3.35;;
25319;SDS011;13256;49.012;8.610;2023-06-14T19:18:21;6.05;;;3.15;;
25319;SDS011;13256;49.012;8.610;2023-06-14T19:20:51;5.25;;;2.97;;
25319;SDS011;13256;49.012;8.610;2023-06-14T19:23:20;4.78;;;3.28;;
25319;SDS011;13256;49.012;8.610;2023-06-14T19:28:27;5.60;;;2.50;;
25319;SDS011;13256;49.012;8.610;2023-06-14T19:36:42;7.60;;;2.33;;
25319;SDS011;13256;49.012;8.610;2023-06-14T19:39:24;3.42;;;2.47;;
25319;SDS011;13256;49.012;8.610;2023-06-14T19:41:53;3.83;;;2.67;;
25319;SDS011;13256;49.012;8.610;2023-06-14T19:44:20;2.85;;;2.22;;
25319;SDS011;13256;49.012;8.610;2023-06-14T19:46:50;4.15;;;2.22;;
25319;SDS011;13256;49.012;8.610;2023-06-14T19:49:17;7.05;;;3.00;;